sensor_id;sensor_type;location;lat;lon;timestamp;temperature;humidity
78536;SHT31;67829;51.968;5.684;2024-02-21T00:01:50;11.9;69.3
78536;SHT31;67829;51.968;5.684;2024-02-21T00:04:19;11.9;69.2
78536;SHT31;67829;51.968;5.684;2024-02-21T00:06:47;11.9;69.3
78536;SHT31;67829;51.968;5.684;2024-02-21T00:09:16;11.9;69.4
78536;SHT31;67829;51.968;5.684;2024-02-21T00:11:45;11.9;69.1
78536;SHT31;67829;51.968;5.684;2024-02-21T00:14:14;11.9;69.3
78536;SHT31;67829;51.968;5.684;2024-02-21T00:16:42;11.9;69.4
78536;SHT31;67829;51.968;5.684;2024-02-21T00:19:11;11.9;69.4
78536;SHT31;67829;51.968;5.684;2024-02-21T00:21:40;11.9;69.4
78536;SHT31;67829;51.968;5.684;2024-02-21T00:24:09;11.9;69.1
78536;SHT31;67829;51.968;5.684;2024-02-21T00:26:37;11.9;69.2
78536;SHT31;67829;51.968;5.684;2024-02-21T00:29:06;11.9;69.4
78536;SHT31;67829;51.968;5.684;2024-02-21T00:31:36;11.9;69.4
78536;SHT31;67829;51.968;5.684;2024-02-21T00:34:04;11.9;69.5
78536;SHT31;67829;51.968;5.684;2024-02-21T00:36:33;11.9;69.4
78536;SHT31;67829;51.968;5.684;2024-02-21T00:39:01;11.9;69.3
78536;SHT31;67829;51.968;5.684;2024-02-21T00:41:30;11.9;69.0
78536;SHT31;67829;51.968;5.684;2024-02-21T00:43:59;11.9;69.2
78536;SHT31;67829;51.968;5.684;2024-02-21T00:46:28;11.9;69.1
78536;SHT31;67829;51.968;5.684;2024-02-21T00:48:56;11.9;69.1
78536;SHT31;67829;51.968;5.684;2024-02-21T00:51:25;11.9;69.2
78536;SHT31;67829;51.968;5.684;2024-02-21T00:53:53;11.9;69.1
78536;SHT31;67829;51.968;5.684;2024-02-21T00:56:22;11.9;69.3
78536;SHT31;67829;51.968;5.684;2024-02-21T00:58:50;11.9;69.2
78536;SHT31;67829;51.968;5.684;2024-02-21T01:01:24;11.9;68.8
78536;SHT31;67829;51.968;5.684;2024-02-21T01:03:55;11.9;68.6
78536;SHT31;67829;51.968;5.684;2024-02-21T01:06:23;11.9;68.6
78536;SHT31;67829;51.968;5.684;2024-02-21T01:08:52;11.9;68.7
78536;SHT31;67829;51.968;5.684;2024-02-21T01:11:23;11.9;68.7
78536;SHT31;67829;51.968;5.684;2024-02-21T01:13:51;11.9;68.7
78536;SHT31;67829;51.968;5.684;2024-02-21T01:16:20;11.9;69.0
78536;SHT31;67829;51.968;5.684;2024-02-21T01:18:48;11.9;68.9
78536;SHT31;67829;51.968;5.684;2024-02-21T01:21:17;11.9;68.8
78536;SHT31;67829;51.968;5.684;2024-02-21T01:23:45;11.9;69.0
78536;SHT31;67829;51.968;5.684;2024-02-21T01:26:14;11.9;69.0
78536;SHT31;67829;51.968;5.684;2024-02-21T01:28:42;11.9;69.2
78536;SHT31;67829;51.968;5.684;2024-02-21T01:31:13;11.9;69.2
78536;SHT31;67829;51.968;5.684;2024-02-21T01:33:42;11.9;69.0
78536;SHT31;67829;51.968;5.684;2024-02-21T01:36:10;11.9;68.8
78536;SHT31;67829;51.968;5.684;2024-02-21T01:38:39;11.9;68.6
78536;SHT31;67829;51.968;5.684;2024-02-21T01:41:09;11.9;68.6
78536;SHT31;67829;51.968;5.684;2024-02-21T01:43:37;11.9;68.6
78536;SHT31;67829;51.968;5.684;2024-02-21T01:46:06;11.9;68.7
78536;SHT31;67829;51.968;5.684;2024-02-21T01:48:37;11.9;68.8
78536;SHT31;67829;51.968;5.684;2024-02-21T01:51:06;12.0;68.7
78536;SHT31;67829;51.968;5.684;2024-02-21T01:53:38;12.0;68.6
78536;SHT31;67829;51.968;5.684;2024-02-21T01:56:09;12.0;68.5
78536;SHT31;67829;51.968;5.684;2024-02-21T01:58:40;12.0;68.6
78536;SHT31;67829;51.968;5.684;2024-02-21T02:01:10;12.0;68.4
78536;SHT31;67829;51.968;5.684;2024-02-21T02:03:39;12.0;68.4
78536;SHT31;67829;51.968;5.684;2024-02-21T02:06:08;12.0;68.5
78536;SHT31;67829;51.968;5.684;2024-02-21T02:08:37;12.0;68.4
78536;SHT31;67829;51.968;5.684;2024-02-21T02:11:06;12.0;68.4
78536;SHT31;67829;51.968;5.684;2024-02-21T02:13:35;12.0;68.2
78536;SHT31;67829;51.968;5.684;2024-02-21T02:16:05;12.0;68.3
78536;SHT31;67829;51.968;5.684;2024-02-21T02:18:33;11.9;68.5
78536;SHT31;67829;51.968;5.684;2024-02-21T02:21:03;11.9;68.6
78536;SHT31;67829;51.968;5.684;2024-02-21T02:23:33;11.9;68.9
78536;SHT31;67829;51.968;5.684;2024-02-21T02:26:02;11.9;68.6
78536;SHT31;67829;51.968;5.684;2024-02-21T02:28:33;11.9;68.7
78536;SHT31;67829;51.968;5.684;2024-02-21T02:31:03;11.9;68.8
78536;SHT31;67829;51.968;5.684;2024-02-21T02:33:32;11.9;69.0
78536;SHT31;67829;51.968;5.684;2024-02-21T02:36:00;11.9;69.2
78536;SHT31;67829;51.968;5.684;2024-02-21T02:38:29;11.9;69.2
78536;SHT31;67829;51.968;5.684;2024-02-21T02:40:58;11.9;69.1
78536;SHT31;67829;51.968;5.684;2024-02-21T02:43:26;11.9;69.1
78536;SHT31;67829;51.968;5.684;2024-02-21T02:45:55;11.9;69.2
78536;SHT31;67829;51.968;5.684;2024-02-21T02:48:24;11.9;69.2
78536;SHT31;67829;51.968;5.684;2024-02-21T02:50:54;11.9;69.2
78536;SHT31;67829;51.968;5.684;2024-02-21T02:53:23;11.9;69.4
78536;SHT31;67829;51.968;5.684;2024-02-21T02:55:51;11.9;69.3
78536;SHT31;67829;51.968;5.684;2024-02-21T02:58:20;11.9;69.3
78536;SHT31;67829;51.968;5.684;2024-02-21T03:00:48;11.9;69.3
78536;SHT31;67829;51.968;5.684;2024-02-21T03:03:17;11.9;69.5
78536;SHT31;67829;51.968;5.684;2024-02-21T03:05:46;11.9;69.4
78536;SHT31;67829;51.968;5.684;2024-02-21T03:08:14;11.9;69.0
78536;SHT31;67829;51.968;5.684;2024-02-21T03:10:45;11.9;68.7
78536;SHT31;67829;51.968;5.684;2024-02-21T03:13:13;11.9;68.7
78536;SHT31;67829;51.968;5.684;2024-02-21T03:15:42;11.9;68.6
78536;SHT31;67829;51.968;5.684;2024-02-21T03:18:10;11.8;68.9
78536;SHT31;67829;51.968;5.684;2024-02-21T03:20:39;11.8;69.0
78536;SHT31;67829;51.968;5.684;2024-02-21T03:23:07;11.8;69.0
78536;SHT31;67829;51.968;5.684;2024-02-21T03:25:36;11.8;69.1
78536;SHT31;67829;51.968;5.684;2024-02-21T03:28:05;11.8;69.1
78536;SHT31;67829;51.968;5.684;2024-02-21T03:30:34;11.8;69.2
78536;SHT31;67829;51.968;5.684;2024-02-21T03:33:02;11.8;69.2
78536;SHT31;67829;51.968;5.684;2024-02-21T03:35:31;11.8;69.2
78536;SHT31;67829;51.968;5.684;2024-02-21T03:38:00;11.8;69.1
78536;SHT31;67829;51.968;5.684;2024-02-21T03:40:29;11.8;69.0
78536;SHT31;67829;51.968;5.684;2024-02-21T03:42:58;11.8;69.1
78536;SHT31;67829;51.968;5.684;2024-02-21T03:45:27;11.8;69.1
78536;SHT31;67829;51.968;5.684;2024-02-21T03:47:56;11.8;69.2
78536;SHT31;67829;51.968;5.684;2024-02-21T03:50:25;11.8;69.2
78536;SHT31;67829;51.968;5.684;2024-02-21T03:52:54;11.8;69.1
78536;SHT31;67829;51.968;5.684;2024-02-21T03:55:22;11.8;69.0
78536;SHT31;67829;51.968;5.684;2024-02-21T03:57:51;11.7;69.1
78536;SHT31;67829;51.968;5.684;2024-02-21T04:00:20;11.7;69.0
78536;SHT31;67829;51.968;5.684;2024-02-21T04:02:50;11.7;69.2
78536;SHT31;67829;51.968;5.684;2024-02-21T04:05:20;11.7;69.1
78536;SHT31;67829;51.968;5.684;2024-02-21T04:07:49;11.7;69.2
78536;SHT31;67829;51.968;5.684;2024-02-21T04:10:18;11.7;69.2
78536;SHT31;67829;51.968;5.684;2024-02-21T04:12:46;11.7;69.1
78536;SHT31;67829;51.968;5.684;2024-02-21T04:15:16;11.7;69.1
78536;SHT31;67829;51.968;5.684;2024-02-21T04:17:45;11.7;69.1
78536;SHT31;67829;51.968;5.684;2024-02-21T04:20:16;11.7;69.2
78536;SHT31;67829;51.968;5.684;2024-02-21T04:22:46;11.7;69.2
78536;SHT31;67829;51.968;5.684;2024-02-21T04:25:15;11.7;69.1
78536;SHT31;67829;51.968;5.684;2024-02-21T04:27:43;11.7;69.2
78536;SHT31;67829;51.968;5.684;2024-02-21T04:30:13;11.7;69.2
78536;SHT31;67829;51.968;5.684;2024-02-21T04:32:42;11.7;69.4
78536;SHT31;67829;51.968;5.684;2024-02-21T04:35:13;11.7;69.6
78536;SHT31;67829;51.968;5.684;2024-02-21T04:37:42;11.7;69.6
78536;SHT31;67829;51.968;5.684;2024-02-21T04:40:12;11.7;69.7
78536;SHT31;67829;51.968;5.684;2024-02-21T04:42:41;11.7;69.6
78536;SHT31;67829;51.968;5.684;2024-02-21T04:45:12;11.7;69.6
78536;SHT31;67829;51.968;5.684;2024-02-21T04:47:42;11.7;69.6
78536;SHT31;67829;51.968;5.684;2024-02-21T04:50:12;11.7;69.7
78536;SHT31;67829;51.968;5.684;2024-02-21T04:52:40;11.7;69.9
78536;SHT31;67829;51.968;5.684;2024-02-21T04:55:09;11.7;69.6
78536;SHT31;67829;51.968;5.684;2024-02-21T04:57:37;11.7;69.7
78536;SHT31;67829;51.968;5.684;2024-02-21T05:00:07;11.7;69.6
78536;SHT31;67829;51.968;5.684;2024-02-21T05:02:37;11.7;69.7
78536;SHT31;67829;51.968;5.684;2024-02-21T05:05:06;11.7;69.7
78536;SHT31;67829;51.968;5.684;2024-02-21T05:07:36;11.7;69.7
78536;SHT31;67829;51.968;5.684;2024-02-21T05:10:07;11.7;69.6
78536;SHT31;67829;51.968;5.684;2024-02-21T05:12:36;11.7;69.5
78536;SHT31;67829;51.968;5.684;2024-02-21T05:15:05;11.7;69.6
78536;SHT31;67829;51.968;5.684;2024-02-21T05:17:34;11.7;69.3
78536;SHT31;67829;51.968;5.684;2024-02-21T05:20:03;11.7;69.4
78536;SHT31;67829;51.968;5.684;2024-02-21T05:22:33;11.7;69.4
78536;SHT31;67829;51.968;5.684;2024-02-21T05:25:02;11.7;69.5
78536;SHT31;67829;51.968;5.684;2024-02-21T05:27:30;11.7;69.4
78536;SHT31;67829;51.968;5.684;2024-02-21T05:29:59;11.7;69.6
78536;SHT31;67829;51.968;5.684;2024-02-21T05:32:28;11.6;69.6
78536;SHT31;67829;51.968;5.684;2024-02-21T05:34:56;11.6;69.7
78536;SHT31;67829;51.968;5.684;2024-02-21T05:37:26;11.6;69.6
78536;SHT31;67829;51.968;5.684;2024-02-21T05:39:54;11.6;69.6
78536;SHT31;67829;51.968;5.684;2024-02-21T05:42:23;11.6;69.6
78536;SHT31;67829;51.968;5.684;2024-02-21T05:44:51;11.6;69.3
78536;SHT31;67829;51.968;5.684;2024-02-21T05:47:20;11.6;69.5
78536;SHT31;67829;51.968;5.684;2024-02-21T05:49:48;11.6;69.5
78536;SHT31;67829;51.968;5.684;2024-02-21T05:52:20;11.6;69.7
78536;SHT31;67829;51.968;5.684;2024-02-21T05:54:49;11.6;69.7
78536;SHT31;67829;51.968;5.684;2024-02-21T05:57:18;11.6;69.7
78536;SHT31;67829;51.968;5.684;2024-02-21T05:59:47;11.6;69.7
78536;SHT31;67829;51.968;5.684;2024-02-21T06:02:15;11.6;69.6
78536;SHT31;67829;51.968;5.684;2024-02-21T06:04:44;11.6;69.6
78536;SHT31;67829;51.968;5.684;2024-02-21T06:07:13;11.6;69.7
78536;SHT31;67829;51.968;5.684;2024-02-21T06:09:42;11.5;69.7
78536;SHT31;67829;51.968;5.684;2024-02-21T06:12:11;11.5;69.7
78536;SHT31;67829;51.968;5.684;2024-02-21T06:14:40;11.5;69.7
78536;SHT31;67829;51.968;5.684;2024-02-21T06:17:08;11.5;69.9
78536;SHT31;67829;51.968;5.684;2024-02-21T06:19:39;11.5;69.8
78536;SHT31;67829;51.968;5.684;2024-02-21T06:22:11;11.5;69.5
78536;SHT31;67829;51.968;5.684;2024-02-21T06:24:39;11.5;69.2
78536;SHT31;67829;51.968;5.684;2024-02-21T06:27:08;11.5;69.3
78536;SHT31;67829;51.968;5.684;2024-02-21T06:29:37;11.5;69.2
78536;SHT31;67829;51.968;5.684;2024-02-21T06:32:06;11.5;69.2
78536;SHT31;67829;51.968;5.684;2024-02-21T06:34:35;11.4;69.2
78536;SHT31;67829;51.968;5.684;2024-02-21T06:37:03;11.4;69.2
78536;SHT31;67829;51.968;5.684;2024-02-21T06:39:32;11.4;69.0
78536;SHT31;67829;51.968;5.684;2024-02-21T06:42:00;11.4;69.1
78536;SHT31;67829;51.968;5.684;2024-02-21T06:44:29;11.4;69.2
78536;SHT31;67829;51.968;5.684;2024-02-21T06:46:58;11.4;69.3
78536;SHT31;67829;51.968;5.684;2024-02-21T06:49:27;11.4;69.3
78536;SHT31;67829;51.968;5.684;2024-02-21T06:51:55;11.4;69.3
78536;SHT31;67829;51.968;5.684;2024-02-21T06:54:24;11.4;69.5
78536;SHT31;67829;51.968;5.684;2024-02-21T06:56:52;11.4;69.3
78536;SHT31;67829;51.968;5.684;2024-02-21T06:59:20;11.4;69.6
78536;SHT31;67829;51.968;5.684;2024-02-21T07:01:51;11.4;69.5
78536;SHT31;67829;51.968;5.684;2024-02-21T07:04:20;11.4;69.3
78536;SHT31;67829;51.968;5.684;2024-02-21T07:06:51;11.4;69.4
78536;SHT31;67829;51.968;5.684;2024-02-21T07:09:19;11.4;69.4
78536;SHT31;67829;51.968;5.684;2024-02-21T07:11:48;11.4;69.2
78536;SHT31;67829;51.968;5.684;2024-02-21T07:14:17;11.4;69.3
78536;SHT31;67829;51.968;5.684;2024-02-21T07:16:46;11.4;69.3
78536;SHT31;67829;51.968;5.684;2024-02-21T07:19:15;11.4;69.2
78536;SHT31;67829;51.968;5.684;2024-02-21T07:21:43;11.4;69.4
78536;SHT31;67829;51.968;5.684;2024-02-21T07:24:14;11.4;69.0
78536;SHT31;67829;51.968;5.684;2024-02-21T07:26:45;11.4;68.8
78536;SHT31;67829;51.968;5.684;2024-02-21T07:29:13;11.4;68.9
78536;SHT31;67829;51.968;5.684;2024-02-21T07:31:44;11.4;68.8
78536;SHT31;67829;51.968;5.684;2024-02-21T07:34:15;11.4;68.8
78536;SHT31;67829;51.968;5.684;2024-02-21T07:36:43;11.4;68.7
78536;SHT31;67829;51.968;5.684;2024-02-21T07:39:12;11.4;68.9
78536;SHT31;67829;51.968;5.684;2024-02-21T07:41:40;11.4;69.1
78536;SHT31;67829;51.968;5.684;2024-02-21T07:44:11;11.4;69.0
78536;SHT31;67829;51.968;5.684;2024-02-21T07:46:40;11.4;68.9
78536;SHT31;67829;51.968;5.684;2024-02-21T07:49:08;11.4;68.7
78536;SHT31;67829;51.968;5.684;2024-02-21T07:51:37;11.4;69.0
78536;SHT31;67829;51.968;5.684;2024-02-21T07:54:05;11.4;69.2
78536;SHT31;67829;51.968;5.684;2024-02-21T07:56:34;11.4;69.2
78536;SHT31;67829;51.968;5.684;2024-02-21T07:59:02;11.5;69.2
78536;SHT31;67829;51.968;5.684;2024-02-21T08:01:31;11.5;69.0
78536;SHT31;67829;51.968;5.684;2024-02-21T08:03:59;11.5;69.2
78536;SHT31;67829;51.968;5.684;2024-02-21T08:06:29;11.5;69.2
78536;SHT31;67829;51.968;5.684;2024-02-21T08:08:57;11.5;68.9
78536;SHT31;67829;51.968;5.684;2024-02-21T08:11:27;11.5;68.6
78536;SHT31;67829;51.968;5.684;2024-02-21T08:13:55;11.5;68.7
78536;SHT31;67829;51.968;5.684;2024-02-21T08:16:24;11.5;68.8
78536;SHT31;67829;51.968;5.684;2024-02-21T08:18:53;11.5;69.0
78536;SHT31;67829;51.968;5.684;2024-02-21T08:21:21;11.5;69.1
78536;SHT31;67829;51.968;5.684;2024-02-21T08:23:50;11.5;69.2
78536;SHT31;67829;51.968;5.684;2024-02-21T08:26:20;11.6;69.2
78536;SHT31;67829;51.968;5.684;2024-02-21T08:28:51;11.6;69.0
78536;SHT31;67829;51.968;5.684;2024-02-21T08:31:20;11.6;68.8
78536;SHT31;67829;51.968;5.684;2024-02-21T08:33:51;11.6;68.6
78536;SHT31;67829;51.968;5.684;2024-02-21T08:36:19;11.6;68.7
78536;SHT31;67829;51.968;5.684;2024-02-21T08:38:48;11.7;68.5
78536;SHT31;67829;51.968;5.684;2024-02-21T08:41:17;11.7;68.3
78536;SHT31;67829;51.968;5.684;2024-02-21T08:43:46;11.7;68.3
78536;SHT31;67829;51.968;5.684;2024-02-21T08:46:14;11.7;68.3
78536;SHT31;67829;51.968;5.684;2024-02-21T08:48:43;11.8;68.1
78536;SHT31;67829;51.968;5.684;2024-02-21T08:51:12;11.8;68.0
78536;SHT31;67829;51.968;5.684;2024-02-21T08:53:41;11.8;68.0
78536;SHT31;67829;51.968;5.684;2024-02-21T08:56:10;11.8;67.9
78536;SHT31;67829;51.968;5.684;2024-02-21T08:58:40;11.8;67.8
78536;SHT31;67829;51.968;5.684;2024-02-21T09:01:09;11.8;67.8
78536;SHT31;67829;51.968;5.684;2024-02-21T09:03:39;11.9;67.4
78536;SHT31;67829;51.968;5.684;2024-02-21T09:06:09;11.9;67.3
78536;SHT31;67829;51.968;5.684;2024-02-21T09:08:39;11.9;67.6
78536;SHT31;67829;51.968;5.684;2024-02-21T09:11:09;11.9;67.7
78536;SHT31;67829;51.968;5.684;2024-02-21T09:13:38;11.9;67.5
78536;SHT31;67829;51.968;5.684;2024-02-21T09:16:07;11.9;67.5
78536;SHT31;67829;51.968;5.684;2024-02-21T09:18:35;11.9;67.5
78536;SHT31;67829;51.968;5.684;2024-02-21T09:21:04;12.0;67.5
78536;SHT31;67829;51.968;5.684;2024-02-21T09:23:32;12.0;67.5
78536;SHT31;67829;51.968;5.684;2024-02-21T09:26:01;12.0;67.2
78536;SHT31;67829;51.968;5.684;2024-02-21T09:28:30;12.0;67.1
78536;SHT31;67829;51.968;5.684;2024-02-21T09:31:01;12.0;67.4
78536;SHT31;67829;51.968;5.684;2024-02-21T09:33:29;12.1;67.1
78536;SHT31;67829;51.968;5.684;2024-02-21T09:35:58;12.1;67.2
78536;SHT31;67829;51.968;5.684;2024-02-21T09:38:27;12.1;66.8
78536;SHT31;67829;51.968;5.684;2024-02-21T09:40:59;12.1;66.3
78536;SHT31;67829;51.968;5.684;2024-02-21T09:43:31;12.1;66.2
78536;SHT31;67829;51.968;5.684;2024-02-21T09:46:02;12.2;65.9
78536;SHT31;67829;51.968;5.684;2024-02-21T09:48:42;12.2;66.1
78536;SHT31;67829;51.968;5.684;2024-02-21T09:51:15;12.2;66.4
78536;SHT31;67829;51.968;5.684;2024-02-21T09:53:45;12.2;66.6
78536;SHT31;67829;51.968;5.684;2024-02-21T09:56:15;12.2;66.2
78536;SHT31;67829;51.968;5.684;2024-02-21T09:58:44;12.2;66.2
78536;SHT31;67829;51.968;5.684;2024-02-21T10:01:14;12.3;66.1
78536;SHT31;67829;51.968;5.684;2024-02-21T10:03:44;12.3;65.6
78536;SHT31;67829;51.968;5.684;2024-02-21T10:06:12;12.3;65.9
78536;SHT31;67829;51.968;5.684;2024-02-21T10:08:41;12.3;66.2
78536;SHT31;67829;51.968;5.684;2024-02-21T10:11:09;12.3;66.4
78536;SHT31;67829;51.968;5.684;2024-02-21T10:13:39;12.3;66.3
78536;SHT31;67829;51.968;5.684;2024-02-21T10:16:08;12.4;65.8
78536;SHT31;67829;51.968;5.684;2024-02-21T10:18:37;12.4;66.4
78536;SHT31;67829;51.968;5.684;2024-02-21T10:21:07;12.4;65.9
78536;SHT31;67829;51.968;5.684;2024-02-21T10:23:48;12.4;66.1
78536;SHT31;67829;51.968;5.684;2024-02-21T10:26:18;12.5;65.8
78536;SHT31;67829;51.968;5.684;2024-02-21T10:28:48;12.5;65.9
78536;SHT31;67829;51.968;5.684;2024-02-21T10:31:25;12.5;66.1
78536;SHT31;67829;51.968;5.684;2024-02-21T10:33:59;12.5;66.2
78536;SHT31;67829;51.968;5.684;2024-02-21T10:36:29;12.5;66.5
78536;SHT31;67829;51.968;5.684;2024-02-21T10:38:58;12.5;66.1
78536;SHT31;67829;51.968;5.684;2024-02-21T10:41:28;12.5;66.3
78536;SHT31;67829;51.968;5.684;2024-02-21T10:43:58;12.5;66.7
78536;SHT31;67829;51.968;5.684;2024-02-21T10:46:33;12.5;67.1
78536;SHT31;67829;51.968;5.684;2024-02-21T10:49:13;12.5;67.6
78536;SHT31;67829;51.968;5.684;2024-02-21T10:51:45;12.5;67.4
78536;SHT31;67829;51.968;5.684;2024-02-21T10:54:28;12.5;67.7
78536;SHT31;67829;51.968;5.684;2024-02-21T10:57:00;12.5;67.9
78536;SHT31;67829;51.968;5.684;2024-02-21T10:59:32;12.5;67.7
78536;SHT31;67829;51.968;5.684;2024-02-21T11:02:02;12.5;67.9
78536;SHT31;67829;51.968;5.684;2024-02-21T11:04:32;12.5;68.0
78536;SHT31;67829;51.968;5.684;2024-02-21T11:07:05;12.5;67.6
78536;SHT31;67829;51.968;5.684;2024-02-21T11:09:34;12.6;67.7
78536;SHT31;67829;51.968;5.684;2024-02-21T11:12:05;12.6;67.2
78536;SHT31;67829;51.968;5.684;2024-02-21T11:14:38;12.6;67.2
78536;SHT31;67829;51.968;5.684;2024-02-21T11:17:17;12.6;66.8
78536;SHT31;67829;51.968;5.684;2024-02-21T11:19:46;12.7;66.8
78536;SHT31;67829;51.968;5.684;2024-02-21T11:22:19;12.7;67.1
78536;SHT31;67829;51.968;5.684;2024-02-21T11:24:51;12.7;66.7
78536;SHT31;67829;51.968;5.684;2024-02-21T11:27:22;12.7;66.1
78536;SHT31;67829;51.968;5.684;2024-02-21T11:29:57;12.7;65.7
78536;SHT31;67829;51.968;5.684;2024-02-21T11:32:27;12.7;65.7
78536;SHT31;67829;51.968;5.684;2024-02-21T11:34:58;12.7;65.6
78536;SHT31;67829;51.968;5.684;2024-02-21T11:37:31;12.7;65.6
78536;SHT31;67829;51.968;5.684;2024-02-21T11:40:03;12.7;65.7
78536;SHT31;67829;51.968;5.684;2024-02-21T11:42:33;12.7;65.5
78536;SHT31;67829;51.968;5.684;2024-02-21T11:45:02;12.7;65.5
78536;SHT31;67829;51.968;5.684;2024-02-21T11:47:31;12.7;65.6
78536;SHT31;67829;51.968;5.684;2024-02-21T11:49:59;12.7;64.9
78536;SHT31;67829;51.968;5.684;2024-02-21T11:52:32;12.7;65.1
78536;SHT31;67829;51.968;5.684;2024-02-21T11:55:00;12.7;65.1
78536;SHT31;67829;51.968;5.684;2024-02-21T11:57:32;12.7;65.2
78536;SHT31;67829;51.968;5.684;2024-02-21T12:00:13;12.7;65.2
78536;SHT31;67829;51.968;5.684;2024-02-21T12:02:43;12.6;65.0
78536;SHT31;67829;51.968;5.684;2024-02-21T12:05:12;12.6;65.2
78536;SHT31;67829;51.968;5.684;2024-02-21T12:07:41;12.6;65.0
78536;SHT31;67829;51.968;5.684;2024-02-21T12:10:11;12.6;65.4
78536;SHT31;67829;51.968;5.684;2024-02-21T12:12:41;12.7;65.2
78536;SHT31;67829;51.968;5.684;2024-02-21T12:15:09;12.7;65.2
78536;SHT31;67829;51.968;5.684;2024-02-21T12:17:40;12.7;65.4
78536;SHT31;67829;51.968;5.684;2024-02-21T12:20:09;12.8;65.2
78536;SHT31;67829;51.968;5.684;2024-02-21T12:22:38;12.8;65.3
78536;SHT31;67829;51.968;5.684;2024-02-21T12:25:18;12.8;65.2
78536;SHT31;67829;51.968;5.684;2024-02-21T12:27:51;12.9;64.6
78536;SHT31;67829;51.968;5.684;2024-02-21T12:30:20;12.9;64.7
78536;SHT31;67829;51.968;5.684;2024-02-21T12:32:51;13.0;64.2
78536;SHT31;67829;51.968;5.684;2024-02-21T12:35:19;13.0;63.9
78536;SHT31;67829;51.968;5.684;2024-02-21T12:37:48;13.1;64.1
78536;SHT31;67829;51.968;5.684;2024-02-21T12:40:16;13.1;63.5
78536;SHT31;67829;51.968;5.684;2024-02-21T12:42:47;13.1;63.6
78536;SHT31;67829;51.968;5.684;2024-02-21T12:45:17;13.2;63.4
78536;SHT31;67829;51.968;5.684;2024-02-21T12:47:48;13.2;62.9
78536;SHT31;67829;51.968;5.684;2024-02-21T12:50:16;13.2;63.0
78536;SHT31;67829;51.968;5.684;2024-02-21T12:52:46;13.2;62.9
78536;SHT31;67829;51.968;5.684;2024-02-21T12:55:16;13.2;62.5
78536;SHT31;67829;51.968;5.684;2024-02-21T12:57:46;13.2;62.5
78536;SHT31;67829;51.968;5.684;2024-02-21T13:00:16;13.2;62.6
78536;SHT31;67829;51.968;5.684;2024-02-21T13:02:46;13.2;61.8
78536;SHT31;67829;51.968;5.684;2024-02-21T13:05:15;13.2;62.6
78536;SHT31;67829;51.968;5.684;2024-02-21T13:07:44;13.2;62.4
78536;SHT31;67829;51.968;5.684;2024-02-21T13:10:12;13.2;62.7
78536;SHT31;67829;51.968;5.684;2024-02-21T13:12:41;13.2;62.4
78536;SHT31;67829;51.968;5.684;2024-02-21T13:15:10;13.2;62.7
78536;SHT31;67829;51.968;5.684;2024-02-21T13:17:40;13.2;62.4
78536;SHT31;67829;51.968;5.684;2024-02-21T13:20:12;13.3;62.7
78536;SHT31;67829;51.968;5.684;2024-02-21T13:22:40;13.3;62.7
78536;SHT31;67829;51.968;5.684;2024-02-21T13:25:09;13.3;62.5
78536;SHT31;67829;51.968;5.684;2024-02-21T13:27:41;13.3;62.2
78536;SHT31;67829;51.968;5.684;2024-02-21T13:30:11;13.3;62.1
78536;SHT31;67829;51.968;5.684;2024-02-21T13:32:42;13.3;62.6
78536;SHT31;67829;51.968;5.684;2024-02-21T13:35:12;13.3;62.7
78536;SHT31;67829;51.968;5.684;2024-02-21T13:37:41;13.3;62.4
78536;SHT31;67829;51.968;5.684;2024-02-21T13:40:11;13.4;62.0
78536;SHT31;67829;51.968;5.684;2024-02-21T13:42:40;13.4;61.7
78536;SHT31;67829;51.968;5.684;2024-02-21T13:45:10;13.4;62.3
78536;SHT31;67829;51.968;5.684;2024-02-21T13:47:38;13.4;62.0
78536;SHT31;67829;51.968;5.684;2024-02-21T13:50:10;13.4;61.8
78536;SHT31;67829;51.968;5.684;2024-02-21T13:52:40;13.4;62.1
78536;SHT31;67829;51.968;5.684;2024-02-21T13:55:10;13.4;61.9
78536;SHT31;67829;51.968;5.684;2024-02-21T13:57:38;13.4;61.9
78536;SHT31;67829;51.968;5.684;2024-02-21T14:00:09;13.4;62.0
78536;SHT31;67829;51.968;5.684;2024-02-21T14:02:38;13.4;62.3
78536;SHT31;67829;51.968;5.684;2024-02-21T14:05:08;13.4;62.4
78536;SHT31;67829;51.968;5.684;2024-02-21T14:07:37;13.4;62.0
78536;SHT31;67829;51.968;5.684;2024-02-21T14:10:07;13.4;62.2
78536;SHT31;67829;51.968;5.684;2024-02-21T14:12:36;13.4;62.2
78536;SHT31;67829;51.968;5.684;2024-02-21T14:15:07;13.4;62.0
78536;SHT31;67829;51.968;5.684;2024-02-21T14:17:37;13.4;62.2
78536;SHT31;67829;51.968;5.684;2024-02-21T14:20:07;13.4;61.7
78536;SHT31;67829;51.968;5.684;2024-02-21T14:22:36;13.4;61.9
78536;SHT31;67829;51.968;5.684;2024-02-21T14:25:07;13.4;61.2
78536;SHT31;67829;51.968;5.684;2024-02-21T14:27:35;13.4;61.4
78536;SHT31;67829;51.968;5.684;2024-02-21T14:30:05;13.4;60.8
78536;SHT31;67829;51.968;5.684;2024-02-21T14:32:39;13.4;60.7
78536;SHT31;67829;51.968;5.684;2024-02-21T14:35:10;13.4;61.0
78536;SHT31;67829;51.968;5.684;2024-02-21T14:37:38;13.4;61.0
78536;SHT31;67829;51.968;5.684;2024-02-21T14:40:08;13.4;60.6
78536;SHT31;67829;51.968;5.684;2024-02-21T14:42:37;13.4;60.7
78536;SHT31;67829;51.968;5.684;2024-02-21T14:45:06;13.4;60.8
78536;SHT31;67829;51.968;5.684;2024-02-21T14:47:35;13.4;60.4
78536;SHT31;67829;51.968;5.684;2024-02-21T14:50:05;13.4;60.1
78536;SHT31;67829;51.968;5.684;2024-02-21T14:52:34;13.3;60.0
78536;SHT31;67829;51.968;5.684;2024-02-21T14:55:06;13.3;60.4
78536;SHT31;67829;51.968;5.684;2024-02-21T14:57:35;13.3;60.4
78536;SHT31;67829;51.968;5.684;2024-02-21T15:00:06;13.3;61.4
78536;SHT31;67829;51.968;5.684;2024-02-21T15:02:36;13.3;61.5
78536;SHT31;67829;51.968;5.684;2024-02-21T15:05:05;13.3;61.9
78536;SHT31;67829;51.968;5.684;2024-02-21T15:07:34;13.3;62.2
78536;SHT31;67829;51.968;5.684;2024-02-21T15:10:03;13.2;62.5
78536;SHT31;67829;51.968;5.684;2024-02-21T15:12:33;13.2;62.8
78536;SHT31;67829;51.968;5.684;2024-02-21T15:15:01;13.2;62.7
78536;SHT31;67829;51.968;5.684;2024-02-21T15:17:32;13.2;63.2
78536;SHT31;67829;51.968;5.684;2024-02-21T15:20:00;13.2;63.1
78536;SHT31;67829;51.968;5.684;2024-02-21T15:22:31;13.1;63.8
78536;SHT31;67829;51.968;5.684;2024-02-21T15:25:00;13.1;63.7
78536;SHT31;67829;51.968;5.684;2024-02-21T15:27:31;13.1;64.4
78536;SHT31;67829;51.968;5.684;2024-02-21T15:30:03;13.1;64.5
78536;SHT31;67829;51.968;5.684;2024-02-21T15:32:32;13.0;64.8
78536;SHT31;67829;51.968;5.684;2024-02-21T15:35:02;13.0;65.2
78536;SHT31;67829;51.968;5.684;2024-02-21T15:37:32;13.0;65.1
78536;SHT31;67829;51.968;5.684;2024-02-21T15:40:01;12.9;65.3
78536;SHT31;67829;51.968;5.684;2024-02-21T15:42:34;12.9;66.0
78536;SHT31;67829;51.968;5.684;2024-02-21T15:45:03;12.9;66.0
78536;SHT31;67829;51.968;5.684;2024-02-21T15:47:33;12.9;66.6
78536;SHT31;67829;51.968;5.684;2024-02-21T15:50:02;12.8;66.7
78536;SHT31;67829;51.968;5.684;2024-02-21T15:52:31;12.8;66.5
78536;SHT31;67829;51.968;5.684;2024-02-21T15:55:01;12.8;66.9
78536;SHT31;67829;51.968;5.684;2024-02-21T15:57:30;12.8;66.7
78536;SHT31;67829;51.968;5.684;2024-02-21T15:59:59;12.8;66.6
78536;SHT31;67829;51.968;5.684;2024-02-21T16:02:32;12.7;66.5
78536;SHT31;67829;51.968;5.684;2024-02-21T16:05:00;12.7;66.7
78536;SHT31;67829;51.968;5.684;2024-02-21T16:07:29;12.7;67.2
78536;SHT31;67829;51.968;5.684;2024-02-21T16:09:57;12.6;67.1
78536;SHT31;67829;51.968;5.684;2024-02-21T16:12:26;12.6;67.2
78536;SHT31;67829;51.968;5.684;2024-02-21T16:14:55;12.6;67.5
78536;SHT31;67829;51.968;5.684;2024-02-21T16:17:24;12.5;67.7